Meteo Giornale » Osservazioni meteo Stati Uniti (USA) » Los Angeles

ore: 23:53 - Osservazioni Meteo Los Angeles
Lat. 33° 56' N Lon. 118° 23' W Alt. 38 metri s.l.m.

sereno America/Los_Angeles

9 °C

Sereno

Temp. 24 Ore

8 °C

15 °C

Nord-Est

7.4 Km/h

Dew point 5 °C

Umidità 75 %

Visibilità  10 Km

Il sole sorge alle ore 06:25

Il sole tramonta alle ore 17:47

Data e Ora Cielo e Fenomeni T °C DP °C Um. % Pres. hPa Vis. km Vento km/h
Ieri h: 23:53 sereno Sereno 9 5 75 1022 10 NE 7.4
Ieri h: 22:53 sereno Sereno 11 6 71 1021 10 N 0
Ieri h: 21:53 sereno Sereno 11 5 66 1021 10 O/SO 9.3
Ieri h: 20:53 sereno Sereno 12 5 62 1021 14 N 5.5
Ieri h: 19:53 sereno Sereno 12 5 62 1021 10 O/SO 9.3
Ieri h: 18:53 sereno Sereno 12 3 54 1021 10 O 18.5
Ieri h: 17:53 sereno Sereno 12 4 57 1021 10 O 18.5
Ieri h: 16:53 sereno Sereno 13 3 50 1020 10 O 24
Ieri h: 15:53 sereno Sereno 13 2 47 1020 10 O/SO 24
Ieri h: 14:53 sereno Sereno 14 1 41 1020 10 O 24
Ieri h: 13:53 poco_nuvoloso Poco Nuvoloso 14 2 44 1020 10 O 24
Ieri h: 12:53 nuvoloso Nuvoloso 15 1 38 1021 10 O/SO 22.2
Ieri h: 12:28 nuvoloso Nuvoloso 15 1 38 1021 10 O/SO 24
Ieri h: 11:53 molto_nuvoloso Molto Nuvoloso 15 -2 30 1021 10 N 0
Ieri h: 10:53 molto_nuvoloso Molto Nuvoloso 14 0 38 1022 10 E/SE 7.4
Ieri h: 09:53 nuvoloso Nuvoloso 13 -2 35 1022 10 N 11.1
Ieri h: 08:53 poco_nuvoloso Poco Nuvoloso 12 -1 40 1022 10 N 7.4
Ieri h: 07:53 nuvoloso Nuvoloso 10 -3 39 1022 10 N 9.3
Ieri h: 06:53 nuvoloso Nuvoloso 8 -4 42 1021 10 N 9.3
Ieri h: 05:53 poco_nuvoloso Poco Nuvoloso 8 -4 42 1020 10 N 9.3
Ieri h: 04:53 sereno Sereno 8 -4 42 1020 10 N 9.3
Ieri h: 03:53 sereno Sereno 8 -5 39 1019 10 N 11.1
Ieri h: 02:53 sereno Sereno 9 -7 31 1019 10 N 0
Ieri h: 01:53 sereno Sereno 9 -7 31 1020 10 N 13
Ieri h: 00:53 sereno Sereno 9 -7 31 1019 10 N 9.3
Ieri h: 23:53 sereno Sereno 11 -8 25 1019 10 N/NO 7.4